Time;durP1;ratioP1;P1;durP2;ratioP2;P2;SDS_P1;SDS_P2;PMS_P1;PMS_P2;Temp;Humidity;BMP_temperature;BMP_pressure;BME280_temperature;BME280_humidity;BME280_pressure;Samples;Min_cycle;Max_cycle;Signal;HPM_P1;HPM_P2
2022/10/27 00:01:33;;;;;;;3.80;2.70;;;;;;;;;;5004252;28;20423;-44
2022/10/27 00:03:59;;;;;;;2.80;2.50;;;;;;;;;;5003086;28;20386;-44
2022/10/27 00:06:25;;;;;;;3.87;3.23;;;;;;;;;;5002589;28;20411;-44
2022/10/27 00:08:51;;;;;;;8.30;3.17;;;;;;;;;;5002913;28;20416;-44
2022/10/27 00:11:17;;;;;;;4.53;3.00;;;;;;;;;;5007242;28;20424;-44
2022/10/27 00:13:43;;;;;;;4.80;2.90;;;;;;;;;;5001534;28;20409;-44
2022/10/27 00:16:10;;;;;;;4.83;3.47;;;;;;;;;;5000585;28;20386;-44
2022/10/27 00:18:36;;;;;;;5.67;3.50;;;;;;;;;;5002583;28;20466;-44
2022/10/27 00:21:04;;;;;;;3.50;3.00;;;;;;;;;;5002125;28;20416;-44
2022/10/27 00:23:31;;;;;;;8.77;3.30;;;;;;;;;;5004326;28;20419;-45
2022/10/27 00:25:57;;;;;;;6.47;3.47;;;;;;;;;;5005521;28;20415;-44
2022/10/27 00:28:23;;;;;;;3.50;2.83;;;;;;;;;;5005826;28;20485;-44
2022/10/27 00:30:56;;;;;;;3.93;3.10;;;;;;;;;;5000119;28;20384;-45
2022/10/27 00:33:22;;;;;;;7.53;3.13;;;;;;;;;;4997637;28;20926;-44
2022/10/27 00:35:48;;;;;;;5.60;3.00;;;;;;;;;;5005629;28;20443;-44
2022/10/27 00:38:14;;;;;;;5.80;3.35;;;;;;;;;;5002738;28;20450;-44
2022/10/27 00:40:40;;;;;;;10.80;2.90;;;;;;;;;;5005186;28;20875;-44
2022/10/27 00:43:25;;;;;;;7.00;2.83;;;;;;;;;;5002164;28;21077;-44
2022/10/27 00:45:51;;;;;;;9.83;3.10;;;;;;;;;;5001425;28;20416;-44
2022/10/27 00:48:17;;;;;;;5.27;2.80;;;;;;;;;;5002321;28;20446;-44
2022/10/27 00:50:44;;;;;;;3.90;3.20;;;;;;;;;;5001644;28;20412;-44
2022/10/27 00:53:10;;;;;;;7.23;2.70;;;;;;;;;;5006107;28;20434;-44
2022/10/27 00:55:38;;;;;;;5.90;2.97;;;;;;;;;;5000865;28;20579;-44
2022/10/27 00:58:05;;;;;;;4.70;2.77;;;;;;;;;;5000693;28;20415;-44
2022/10/27 01:00:31;;;;;;;4.80;3.73;;;;;;;;;;5001682;28;20461;-44
2022/10/27 01:02:57;;;;;;;5.97;4.00;;;;;;;;;;5001605;28;20430;-45
2022/10/27 01:05:24;;;;;;;5.87;2.90;;;;;;;;;;5002776;28;20760;-44
2022/10/27 01:07:52;;;;;;;5.47;3.00;;;;;;;;;;5006060;28;20854;-44
2022/10/27 01:10:18;;;;;;;4.30;3.13;;;;;;;;;;5004848;28;20423;-44
2022/10/27 01:12:45;;;;;;;6.17;3.13;;;;;;;;;;4998588;28;20437;-44
2022/10/27 01:15:11;;;;;;;8.30;3.10;;;;;;;;;;4997913;28;20415;-44
2022/10/27 01:17:45;;;;;;;5.73;2.97;;;;;;;;;;5004420;28;20421;-44
2022/10/27 01:20:29;;;;;;;4.93;2.70;;;;;;;;;;5002821;28;21008;-44
2022/10/27 01:23:05;;;;;;;9.87;3.10;;;;;;;;;;4994946;28;20411;-44
2022/10/27 01:25:31;;;;;;;4.50;2.70;;;;;;;;;;5008952;28;20800;-44
2022/10/27 01:28:24;;;;;;;7.70;3.30;;;;;;;;;;5001427;28;20411;-44
2022/10/27 01:30:50;;;;;;;3.13;2.60;;;;;;;;;;4989853;28;20834;-44
2022/10/27 01:33:20;;;;;;;5.50;3.17;;;;;;;;;;5003519;28;20454;-44
2022/10/27 01:36:15;;;;;;;4.13;3.00;;;;;;;;;;4996670;28;20411;-44
2022/10/27 01:39:02;;;;;;;3.60;2.63;;;;;;;;;;4996309;28;20836;-45
2022/10/27 01:41:32;;;;;;;9.80;3.30;;;;;;;;;;5001919;28;20454;-44
2022/10/27 01:44:04;;;;;;;3.50;2.90;;;;;;;;;;4998907;28;20415;-44
2022/10/27 01:46:30;;;;;;;6.30;3.60;;;;;;;;;;5002589;28;20410;-44
2022/10/27 01:48:56;;;;;;;7.43;3.00;;;;;;;;;;5003514;28;20912;-44
2022/10/27 01:51:22;;;;;;;6.73;3.07;;;;;;;;;;4999672;28;20447;-45
2022/10/27 01:53:49;;;;;;;4.23;2.87;;;;;;;;;;5002058;28;20864;-44
2022/10/27 01:56:34;;;;;;;4.90;2.93;;;;;;;;;;5001112;28;20489;-44
2022/10/27 01:59:07;;;;;;;5.53;3.27;;;;;;;;;;4995180;28;20510;-44
2022/10/27 02:01:40;;;;;;;5.00;2.83;;;;;;;;;;5002570;28;20439;-44
2022/10/27 02:04:15;;;;;;;4.40;2.90;;;;;;;;;;5002818;28;20416;-44
2022/10/27 02:06:44;;;;;;;3.10;2.80;;;;;;;;;;5004276;28;20406;-45
2022/10/27 02:09:13;;;;;;;3.43;2.57;;;;;;;;;;5001421;28;20498;-44
2022/10/27 02:11:45;;;;;;;3.83;2.87;;;;;;;;;;4996012;28;20500;-44
2022/10/27 02:14:12;;;;;;;7.40;3.50;;;;;;;;;;5003992;28;20424;-45
2022/10/27 02:16:40;;;;;;;3.40;2.90;;;;;;;;;;5001120;28;20419;-44
2022/10/27 02:19:12;;;;;;;5.50;2.47;;;;;;;;;;5001107;28;20550;-44
2022/10/27 02:21:40;;;;;;;8.63;2.90;;;;;;;;;;5003740;28;20512;-48
2022/10/27 02:24:07;;;;;;;5.67;2.70;;;;;;;;;;5001647;28;20407;-47
2022/10/27 02:26:33;;;;;;;4.23;2.90;;;;;;;;;;5002245;28;20411;-48
2022/10/27 02:29:01;;;;;;;6.97;2.87;;;;;;;;;;5001813;28;20389;-48
2022/10/27 02:31:33;;;;;;;3.80;2.60;;;;;;;;;;5006370;28;20783;-48
2022/10/27 02:34:09;;;;;;;5.43;2.47;;;;;;;;;;5002848;28;20407;-47
2022/10/27 02:36:35;;;;;;;4.80;2.53;;;;;;;;;;4998780;28;20473;-47
2022/10/27 02:39:01;;;;;;;8.60;2.73;;;;;;;;;;4999171;28;20464;-48
2022/10/27 02:41:27;;;;;;;7.30;2.73;;;;;;;;;;5002475;28;20461;-47
2022/10/27 02:43:53;;;;;;;4.47;2.40;;;;;;;;;;5004495;28;20385;-46
2022/10/27 02:46:19;;;;;;;2.70;2.50;;;;;;;;;;5002259;28;20438;-46
2022/10/27 02:48:45;;;;;;;4.23;2.63;;;;;;;;;;5004447;28;20689;-48
2022/10/27 02:51:11;;;;;;;11.70;3.97;;;;;;;;;;5002315;28;20417;-47
2022/10/27 02:53:37;;;;;;;6.87;2.80;;;;;;;;;;4997061;28;20403;-47
2022/10/27 02:56:03;;;;;;;6.70;2.60;;;;;;;;;;5004654;28;20445;-47
2022/10/27 02:58:29;;;;;;;4.87;2.60;;;;;;;;;;5001707;28;20429;-47
2022/10/27 03:00:55;;;;;;;4.83;3.23;;;;;;;;;;5002967;28;20461;-47
2022/10/27 03:03:22;;;;;;;8.70;3.30;;;;;;;;;;5001813;28;20421;-48
2022/10/27 03:05:51;;;;;;;3.80;2.70;;;;;;;;;;5002500;28;20416;-46
2022/10/27 03:08:18;;;;;;;5.00;3.13;;;;;;;;;;4993335;28;20410;-45
2022/10/27 03:10:44;;;;;;;4.10;2.70;;;;;;;;;;5005348;28;20418;-48
2022/10/27 03:13:10;;;;;;;7.93;3.00;;;;;;;;;;5003803;28;20414;-47
2022/10/27 03:15:36;;;;;;;5.73;3.33;;;;;;;;;;5003358;28;20623;-48
2022/10/27 03:18:02;;;;;;;4.17;3.17;;;;;;;;;;5000516;28;20506;-49
2022/10/27 03:20:28;;;;;;;3.50;2.70;;;;;;;;;;5001471;28;20468;-46
2022/10/27 03:22:54;;;;;;;3.60;3.07;;;;;;;;;;5004751;28;20433;-46
2022/10/27 03:25:20;;;;;;;3.63;3.27;;;;;;;;;;5004880;28;20413;-47
2022/10/27 03:27:46;;;;;;;8.87;2.90;;;;;;;;;;5009793;28;20429;-46
2022/10/27 03:30:14;;;;;;;7.20;3.50;;;;;;;;;;5007997;28;20422;-45
2022/10/27 03:32:41;;;;;;;5.43;3.37;;;;;;;;;;5001912;28;20434;-48
2022/10/27 03:35:10;;;;;;;3.80;3.40;;;;;;;;;;5001703;28;20422;-46
2022/10/27 03:37:36;;;;;;;2.93;2.47;;;;;;;;;;5006969;28;20419;-47
2022/10/27 03:40:02;;;;;;;6.17;3.20;;;;;;;;;;5007211;28;20500;-47
2022/10/27 03:42:28;;;;;;;11.43;3.70;;;;;;;;;;5005429;28;20764;-47
2022/10/27 03:44:57;;;;;;;4.63;2.83;;;;;;;;;;5006711;28;20462;-46
2022/10/27 03:47:23;;;;;;;11.80;3.27;;;;;;;;;;5006825;28;20835;-47
2022/10/27 03:49:49;;;;;;;3.57;3.27;;;;;;;;;;5001147;28;20470;-46
2022/10/27 03:52:15;;;;;;;7.73;4.40;;;;;;;;;;5007409;28;20440;-48
2022/10/27 03:54:41;;;;;;;4.47;3.57;;;;;;;;;;5004704;28;20457;-46
2022/10/27 03:57:09;;;;;;;10.90;3.23;;;;;;;;;;5005572;28;21418;-48
2022/10/27 03:59:35;;;;;;;4.17;3.60;;;;;;;;;;5006681;28;20454;-49
2022/10/27 04:02:01;;;;;;;4.87;3.10;;;;;;;;;;4998007;28;20426;-47
2022/10/27 04:04:27;;;;;;;7.30;3.33;;;;;;;;;;5004846;28;20456;-47
2022/10/27 04:06:53;;;;;;;4.97;3.00;;;;;;;;;;5003787;28;20406;-47
2022/10/27 04:09:19;;;;;;;6.20;3.20;;;;;;;;;;5009775;28;20714;-46
2022/10/27 04:11:45;;;;;;;3.80;3.50;;;;;;;;;;5003119;28;20437;-47
2022/10/27 04:14:11;;;;;;;5.17;2.90;;;;;;;;;;5002441;28;20418;-46
2022/10/27 04:16:37;;;;;;;4.17;3.43;;;;;;;;;;5004385;28;20407;-47
2022/10/27 04:19:02;;;;;;;6.23;4.33;;;;;;;;;;5003588;28;21023;-48
2022/10/27 04:21:28;;;;;;;5.93;3.57;;;;;;;;;;5004916;28;20462;-46
2022/10/27 04:26:58;;;;;;;4.43;3.13;;;;;;;;;;5001293;28;20450;-48
2022/10/27 04:29:24;;;;;;;4.40;3.37;;;;;;;;;;5006306;28;20395;-47
2022/10/27 04:31:50;;;;;;;7.20;3.10;;;;;;;;;;5000119;28;20433;-47
2022/10/27 04:34:16;;;;;;;8.57;3.63;;;;;;;;;;5006757;28;20389;-48
2022/10/27 04:36:42;;;;;;;6.13;3.23;;;;;;;;;;5004550;28;20785;-48
2022/10/27 04:39:12;;;;;;;5.73;3.30;;;;;;;;;;5003933;28;20898;-48
2022/10/27 04:41:38;;;;;;;4.40;3.20;;;;;;;;;;5005100;28;20942;-49
2022/10/27 04:44:04;;;;;;;4.70;3.17;;;;;;;;;;5003209;28;20445;-48
2022/10/27 04:46:30;;;;;;;8.03;3.10;;;;;;;;;;5004025;28;20426;-47
2022/10/27 04:48:56;;;;;;;8.77;3.60;;;;;;;;;;5003403;28;20805;-48
2022/10/27 04:51:22;;;;;;;5.97;3.40;;;;;;;;;;5008497;28;20519;-46
2022/10/27 04:53:48;;;;;;;7.90;3.00;;;;;;;;;;5003156;28;20460;-45
2022/10/27 04:56:15;;;;;;;5.63;4.27;;;;;;;;;;5001215;28;20453;-46
2022/10/27 04:58:41;;;;;;;3.23;3.03;;;;;;;;;;5003816;28;20410;-45
2022/10/27 05:01:07;;;;;;;9.40;3.20;;;;;;;;;;5002460;28;20800;-46
2022/10/27 05:03:33;;;;;;;12.27;3.00;;;;;;;;;;5005626;28;20945;-47
2022/10/27 05:06:00;;;;;;;2.97;2.63;;;;;;;;;;5002698;28;20419;-46
2022/10/27 05:08:26;;;;;;;3.30;3.00;;;;;;;;;;5006813;28;20444;-47
2022/10/27 05:10:53;;;;;;;7.83;3.10;;;;;;;;;;5001521;28;20453;-47
2022/10/27 05:13:19;;;;;;;3.47;2.60;;;;;;;;;;4999038;28;20427;-47
2022/10/27 05:15:44;;;;;;;7.53;2.87;;;;;;;;;;5005585;28;20403;-49
2022/10/27 05:18:10;;;;;;;4.87;2.90;;;;;;;;;;5004764;28;20509;-49
2022/10/27 05:20:37;;;;;;;5.80;2.47;;;;;;;;;;5004810;28;20469;-47
2022/10/27 05:23:02;;;;;;;6.00;2.67;;;;;;;;;;5003639;28;20490;-46
2022/10/27 05:25:28;;;;;;;3.37;3.03;;;;;;;;;;5005138;28;20781;-47
2022/10/27 05:28:01;;;;;;;5.67;2.73;;;;;;;;;;5000322;28;20424;-49
2022/10/27 05:30:27;;;;;;;3.47;3.10;;;;;;;;;;5004046;28;20929;-44
2022/10/27 05:32:53;;;;;;;10.20;3.70;;;;;;;;;;5004597;28;20429;-48
2022/10/27 05:35:19;;;;;;;4.07;3.40;;;;;;;;;;5001764;28;20509;-47
2022/10/27 05:37:46;;;;;;;9.23;3.43;;;;;;;;;;5004204;28;20414;-49
2022/10/27 05:40:12;;;;;;;4.60;3.13;;;;;;;;;;5001977;28;20867;-46
2022/10/27 05:42:38;;;;;;;9.33;3.90;;;;;;;;;;5002610;28;20449;-47
2022/10/27 05:45:04;;;;;;;11.03;3.40;;;;;;;;;;5001556;28;20916;-49
2022/10/27 05:47:31;;;;;;;6.47;3.40;;;;;;;;;;5008043;28;20433;-47
2022/10/27 05:49:57;;;;;;;5.20;3.43;;;;;;;;;;5004534;28;20393;-46
2022/10/27 05:52:23;;;;;;;5.77;3.50;;;;;;;;;;4999683;28;20449;-48
2022/10/27 05:54:49;;;;;;;9.57;4.13;;;;;;;;;;5002478;28;20496;-46
2022/10/27 05:57:15;;;;;;;11.97;4.53;;;;;;;;;;5001948;28;20465;-44
2022/10/27 05:59:42;;;;;;;4.37;3.97;;;;;;;;;;5005266;28;20962;-46
2022/10/27 06:02:08;;;;;;;5.10;3.53;;;;;;;;;;5004291;28;20517;-48
2022/10/27 06:04:34;;;;;;;6.10;4.20;;;;;;;;;;5006204;28;20417;-47
2022/10/27 06:07:00;;;;;;;8.53;3.70;;;;;;;;;;5002433;28;20470;-48
2022/10/27 06:09:26;;;;;;;4.57;3.30;;;;;;;;;;4999076;28;20582;-47
2022/10/27 06:11:52;;;;;;;7.77;4.33;;;;;;;;;;5005062;28;20432;-49
2022/10/27 06:14:18;;;;;;;5.90;3.80;;;;;;;;;;5002072;28;20463;-45
2022/10/27 06:16:45;;;;;;;6.10;4.10;;;;;;;;;;5005241;28;20404;-45
2022/10/27 06:19:11;;;;;;;4.80;2.80;;;;;;;;;;5002753;28;20465;-48
2022/10/27 06:21:37;;;;;;;5.30;3.33;;;;;;;;;;5004293;28;20449;-47
2022/10/27 06:24:03;;;;;;;3.00;2.70;;;;;;;;;;5001769;28;20456;-46
2022/10/27 06:26:29;;;;;;;5.27;3.40;;;;;;;;;;5003885;28;20422;-45
2022/10/27 06:28:55;;;;;;;12.90;3.30;;;;;;;;;;5005128;28;20421;-44
2022/10/27 06:31:21;;;;;;;4.77;3.60;;;;;;;;;;5001901;28;20448;-47
2022/10/27 06:33:47;;;;;;;14.87;4.23;;;;;;;;;;5004198;28;20414;-48
2022/10/27 06:36:13;;;;;;;7.30;3.17;;;;;;;;;;5001683;28;20417;-47
2022/10/27 06:38:39;;;;;;;5.87;3.27;;;;;;;;;;5003111;28;20450;-48
2022/10/27 06:41:05;;;;;;;5.40;2.87;;;;;;;;;;5001330;28;20445;-48
2022/10/27 06:43:31;;;;;;;5.70;3.53;;;;;;;;;;5007876;28;20418;-48
2022/10/27 06:45:57;;;;;;;7.77;3.70;;;;;;;;;;5003640;28;20406;-45
2022/10/27 06:48:22;;;;;;;4.00;3.60;;;;;;;;;;5000529;28;20389;-45
2022/10/27 06:50:48;;;;;;;6.40;3.87;;;;;;;;;;5002173;28;20917;-45
2022/10/27 06:53:14;;;;;;;5.60;3.10;;;;;;;;;;5001649;28;20809;-48
2022/10/27 06:55:40;;;;;;;9.60;4.27;;;;;;;;;;5006628;28;20495;-47
2022/10/27 06:58:08;;;;;;;6.97;4.17;;;;;;;;;;5008514;28;20422;-47
2022/10/27 07:00:35;;;;;;;11.83;4.07;;;;;;;;;;5010133;28;20465;-45
2022/10/27 07:03:05;;;;;;;6.43;4.10;;;;;;;;;;5006283;28;21086;-46
2022/10/27 07:05:31;;;;;;;4.33;3.30;;;;;;;;;;4996579;28;20585;-48
2022/10/27 07:07:57;;;;;;;6.20;2.90;;;;;;;;;;5004897;28;20411;-47
2022/10/27 07:10:23;;;;;;;7.10;3.77;;;;;;;;;;5006925;28;20414;-47
2022/10/27 07:12:57;;;;;;;8.90;3.67;;;;;;;;;;5007522;28;20423;-48
2022/10/27 07:15:25;;;;;;;10.73;3.13;;;;;;;;;;5003893;28;20429;-46
2022/10/27 07:17:54;;;;;;;9.50;2.67;;;;;;;;;;5006536;28;20386;-45
2022/10/27 07:20:20;;;;;;;3.37;2.47;;;;;;;;;;5007113;28;20469;-47
2022/10/27 07:22:46;;;;;;;3.57;2.80;;;;;;;;;;5009840;28;20428;-47
2022/10/27 07:25:12;;;;;;;5.53;2.90;;;;;;;;;;5008434;28;20413;-48
2022/10/27 07:27:38;;;;;;;4.60;2.73;;;;;;;;;;5006560;28;20416;-46
2022/10/27 07:30:04;;;;;;;5.53;2.97;;;;;;;;;;5005304;28;20415;-47
2022/10/27 07:32:30;;;;;;;3.40;2.57;;;;;;;;;;5006869;28;20478;-48
2022/10/27 07:34:56;;;;;;;6.10;2.80;;;;;;;;;;5005484;28;20876;-46
2022/10/27 07:37:22;;;;;;;7.00;3.03;;;;;;;;;;5004906;28;20453;-46
2022/10/27 07:39:48;;;;;;;7.30;3.20;;;;;;;;;;5005079;28;20547;-45
2022/10/27 07:42:16;;;;;;;4.17;2.60;;;;;;;;;;5009452;28;20431;-47
2022/10/27 07:44:42;;;;;;;6.23;3.00;;;;;;;;;;4995806;28;20437;-47
2022/10/27 07:47:08;;;;;;;4.37;2.40;;;;;;;;;;5002782;28;20450;-48
2022/10/27 07:49:34;;;;;;;5.60;2.50;;;;;;;;;;5005100;28;20473;-47
2022/10/27 07:52:00;;;;;;;11.63;2.80;;;;;;;;;;5004948;28;20469;-47
2022/10/27 07:54:26;;;;;;;9.37;2.80;;;;;;;;;;5006274;28;20439;-47
2022/10/27 07:56:52;;;;;;;3.97;1.90;;;;;;;;;;5008543;28;20418;-47
2022/10/27 07:59:18;;;;;;;7.57;2.40;;;;;;;;;;5007552;28;20459;-47
2022/10/27 08:01:44;;;;;;;4.60;2.17;;;;;;;;;;5000899;28;20488;-46
2022/10/27 08:04:10;;;;;;;2.90;2.23;;;;;;;;;;5004691;28;20425;-45
2022/10/27 08:06:36;;;;;;;3.83;2.60;;;;;;;;;;5006361;28;20388;-46
2022/10/27 08:09:02;;;;;;;8.60;2.40;;;;;;;;;;5006455;28;20497;-48
2022/10/27 08:11:28;;;;;;;2.00;1.90;;;;;;;;;;5008398;28;20954;-48
2022/10/27 08:13:54;;;;;;;3.93;2.20;;;;;;;;;;5004180;28;20454;-47
2022/10/27 08:16:20;;;;;;;6.27;1.90;;;;;;;;;;5006158;28;20923;-48
2022/10/27 08:18:46;;;;;;;5.63;2.10;;;;;;;;;;4995529;28;20420;-49
2022/10/27 08:21:12;;;;;;;3.20;1.97;;;;;;;;;;5010052;28;20816;-48
2022/10/27 08:23:39;;;;;;;2.50;2.27;;;;;;;;;;5003158;28;20409;-44
2022/10/27 08:26:05;;;;;;;4.17;1.73;;;;;;;;;;5002382;28;20439;-44
2022/10/27 08:28:31;;;;;;;4.00;2.80;;;;;;;;;;5002495;28;20382;-44
2022/10/27 08:30:58;;;;;;;3.00;1.57;;;;;;;;;;5002291;28;20923;-44
2022/10/27 08:33:24;;;;;;;5.73;1.50;;;;;;;;;;5001315;28;20401;-44
2022/10/27 08:35:50;;;;;;;17.80;2.70;;;;;;;;;;5002185;28;20454;-44
2022/10/27 08:38:17;;;;;;;10.03;3.47;;;;;;;;;;5005493;28;20412;-44
2022/10/27 08:40:46;;;;;;;4.43;1.87;;;;;;;;;;4992678;28;20803;-44
2022/10/27 08:43:12;;;;;;;2.23;1.63;;;;;;;;;;4999547;28;20411;-44
2022/10/27 08:45:50;;;;;;;2.13;1.93;;;;;;;;;;5002138;28;20893;-44
2022/10/27 08:48:18;;;;;;;2.23;1.60;;;;;;;;;;5001606;28;20418;-44
2022/10/27 08:50:45;;;;;;;1.40;1.30;;;;;;;;;;4993949;28;20425;-44
2022/10/27 08:53:13;;;;;;;1.93;1.83;;;;;;;;;;4996343;28;20497;-44
2022/10/27 08:55:50;;;;;;;5.43;1.70;;;;;;;;;;5001559;28;20453;-44
2022/10/27 08:58:28;;;;;;;2.07;1.40;;;;;;;;;;5003264;28;20427;-45
2022/10/27 09:00:59;;;;;;;3.70;1.83;;;;;;;;;;4992043;28;20463;-44
2022/10/27 09:03:25;;;;;;;5.10;1.80;;;;;;;;;;5002529;28;20505;-45
2022/10/27 09:05:51;;;;;;;2.07;1.60;;;;;;;;;;5002761;28;20467;-44
2022/10/27 09:08:40;;;;;;;2.10;1.57;;;;;;;;;;4999943;28;20515;-44
2022/10/27 09:11:12;;;;;;;2.07;1.80;;;;;;;;;;5001170;28;20455;-46
2022/10/27 09:13:57;;;;;;;8.47;2.23;;;;;;;;;;5001604;28;20404;-45
2022/10/27 09:16:33;;;;;;;3.10;2.07;;;;;;;;;;5002072;28;20790;-45
2022/10/27 09:19:01;;;;;;;3.33;1.33;;;;;;;;;;5003681;28;20821;-44
2022/10/27 09:21:28;;;;;;;1.77;1.40;;;;;;;;;;5002484;28;20922;-44
2022/10/27 09:23:58;;;;;;;1.57;1.37;;;;;;;;;;5003461;28;20413;-45
2022/10/27 09:26:27;;;;;;;3.97;1.43;;;;;;;;;;5003310;28;20965;-45
2022/10/27 09:28:54;;;;;;;6.23;1.33;;;;;;;;;;4998170;28;20908;-45
2022/10/27 09:31:41;;;;;;;2.47;1.40;;;;;;;;;;5018773;28;20453;-45
2022/10/27 09:34:14;;;;;;;4.50;1.90;;;;;;;;;;5005142;28;20427;-45
2022/10/27 09:36:39;;;;;;;2.50;1.60;;;;;;;;;;4999986;28;20923;-45
2022/10/27 09:39:05;;;;;;;8.03;5.50;;;;;;;;;;4999793;28;20460;-46
2022/10/27 09:41:32;;;;;;;5.27;1.80;;;;;;;;;;5000898;28;20522;-45
2022/10/27 09:43:59;;;;;;;1.77;1.20;;;;;;;;;;5001198;28;20423;-45
2022/10/27 09:46:28;;;;;;;3.97;1.03;;;;;;;;;;5002016;28;20447;-45
2022/10/27 09:48:56;;;;;;;1.73;1.20;;;;;;;;;;5004677;28;20477;-45
2022/10/27 09:51:23;;;;;;;4.63;1.87;;;;;;;;;;5004731;28;20468;-45
2022/10/27 09:53:51;;;;;;;4.00;1.27;;;;;;;;;;4998987;28;20431;-46
2022/10/27 09:56:28;;;;;;;2.40;1.27;;;;;;;;;;4996664;28;20424;-45
2022/10/27 09:59:01;;;;;;;2.93;1.17;;;;;;;;;;5004215;28;20462;-46
2022/10/27 10:01:28;;;;;;;1.30;1.10;;;;;;;;;;5001003;28;20432;-45
2022/10/27 10:03:55;;;;;;;3.73;1.43;;;;;;;;;;5001964;28;20487;-45
2022/10/27 10:06:34;;;;;;;1.47;1.10;;;;;;;;;;5001187;28;20411;-45
2022/10/27 10:09:18;;;;;;;3.67;1.40;;;;;;;;;;4995089;28;20403;-46
2022/10/27 10:11:45;;;;;;;4.23;1.53;;;;;;;;;;5000326;28;20482;-45
2022/10/27 10:14:22;;;;;;;9.13;1.17;;;;;;;;;;5000595;28;20434;-45
2022/10/27 10:16:48;;;;;;;1.93;1.10;;;;;;;;;;4996127;28;20898;-45
2022/10/27 10:19:16;;;;;;;1.43;1.33;;;;;;;;;;5003866;28;20471;-45
2022/10/27 10:21:44;;;;;;;3.33;1.67;;;;;;;;;;4997872;28;20435;-45
2022/10/27 10:24:15;;;;;;;2.67;1.10;;;;;;;;;;4997308;28;20781;-45
2022/10/27 10:26:45;;;;;;;4.77;1.17;;;;;;;;;;5003767;28;20461;-46
2022/10/27 10:29:14;;;;;;;1.57;1.10;;;;;;;;;;5001966;28;20407;-46
2022/10/27 10:31:40;;;;;;;1.60;1.13;;;;;;;;;;5002731;28;20521;-45
2022/10/27 10:34:09;;;;;;;1.50;1.30;;;;;;;;;;5001095;28;20448;-47
2022/10/27 10:36:36;;;;;;;2.93;1.47;;;;;;;;;;5002593;28;20419;-46
2022/10/27 10:39:03;;;;;;;11.50;1.53;;;;;;;;;;4998862;28;20629;-45
2022/10/27 10:41:29;;;;;;;5.50;1.70;;;;;;;;;;4995597;28;20510;-46
2022/10/27 10:44:08;;;;;;;2.60;1.27;;;;;;;;;;5002663;28;20412;-45
2022/10/27 10:46:34;;;;;;;2.63;1.50;;;;;;;;;;4995544;28;20412;-45
2022/10/27 10:49:00;;;;;;;3.70;1.23;;;;;;;;;;4998001;28;20940;-44
2022/10/27 10:51:32;;;;;;;1.83;1.20;;;;;;;;;;4996645;28;20559;-46
2022/10/27 10:54:00;;;;;;;3.10;1.33;;;;;;;;;;4991427;28;20450;-45
2022/10/27 10:56:37;;;;;;;2.43;1.23;;;;;;;;;;4999918;28;20830;-45
2022/10/27 10:59:03;;;;;;;6.20;1.60;;;;;;;;;;5000209;28;20462;-45
2022/10/27 11:01:44;;;;;;;1.90;1.27;;;;;;;;;;4992913;28;20428;-45
2022/10/27 11:04:10;;;;;;;2.60;1.93;;;;;;;;;;5001377;28;20421;-45
2022/10/27 11:06:36;;;;;;;5.20;1.43;;;;;;;;;;4995826;28;20419;-45
2022/10/27 11:09:03;;;;;;;3.10;1.57;;;;;;;;;;5003252;28;20422;-45
2022/10/27 11:11:34;;;;;;;9.47;2.43;;;;;;;;;;5002942;28;20953;-45
2022/10/27 11:14:02;;;;;;;2.40;1.00;;;;;;;;;;5001552;28;20414;-44
2022/10/27 11:16:29;;;;;;;6.43;1.70;;;;;;;;;;5001338;28;20412;-45
2022/10/27 11:18:58;;;;;;;3.20;1.40;;;;;;;;;;4998719;28;20451;-45
2022/10/27 11:21:24;;;;;;;3.20;1.63;;;;;;;;;;5000112;28;20435;-45
2022/10/27 11:23:52;;;;;;;1.33;1.23;;;;;;;;;;5004333;28;20423;-45
2022/10/27 11:26:30;;;;;;;6.27;2.00;;;;;;;;;;5005847;28;20449;-45
2022/10/27 11:29:00;;;;;;;6.47;1.70;;;;;;;;;;5001067;28;20419;-45
2022/10/27 11:31:29;;;;;;;4.03;1.20;;;;;;;;;;4996289;28;20427;-46
2022/10/27 11:33:55;;;;;;;2.70;1.20;;;;;;;;;;4998584;28;20404;-45
2022/10/27 11:36:30;;;;;;;3.53;2.07;;;;;;;;;;4999473;28;20983;-45
2022/10/27 11:38:56;;;;;;;5.50;1.57;;;;;;;;;;4991627;28;20403;-45
2022/10/27 11:41:30;;;;;;;2.13;1.17;;;;;;;;;;4999878;28;20952;-45
2022/10/27 11:44:03;;;;;;;2.70;1.60;;;;;;;;;;5005199;28;20173;-44
2022/10/27 11:46:45;;;;;;;3.63;1.50;;;;;;;;;;5005378;28;20414;-45
2022/10/27 11:49:15;;;;;;;4.83;1.97;;;;;;;;;;5003491;28;20410;-45
2022/10/27 11:51:45;;;;;;;5.47;2.43;;;;;;;;;;5002685;28;20431;-45
2022/10/27 11:54:11;;;;;;;3.03;1.93;;;;;;;;;;5008199;28;20435;-45
2022/10/27 11:56:43;;;;;;;2.33;1.80;;;;;;;;;;5002354;28;20942;-44
2022/10/27 11:59:19;;;;;;;5.97;2.10;;;;;;;;;;5001878;28;20481;-44
2022/10/27 12:01:57;;;;;;;4.73;2.20;;;;;;;;;;4981673;28;20447;-46
2022/10/27 12:04:41;;;;;;;2.37;1.53;;;;;;;;;;5011079;28;20411;-44
2022/10/27 12:07:12;;;;;;;6.23;1.53;;;;;;;;;;5006779;28;20588;-44
2022/10/27 12:09:53;;;;;;;2.60;1.40;;;;;;;;;;5005652;28;20434;-44
2022/10/27 12:12:31;;;;;;;1.73;1.53;;;;;;;;;;4999715;28;20443;-45
2022/10/27 12:15:06;;;;;;;3.93;1.60;;;;;;;;;;5003318;28;20411;-44
2022/10/27 12:17:34;;;;;;;4.90;2.27;;;;;;;;;;5003401;28;20453;-44
2022/10/27 12:20:01;;;;;;;5.00;1.93;;;;;;;;;;5002683;28;20459;-44
2022/10/27 12:22:30;;;;;;;7.10;1.80;;;;;;;;;;5007876;28;20438;-45
2022/10/27 12:25:29;;;;;;;3.70;2.23;;;;;;;;;;5003743;28;20407;-44
2022/10/27 12:27:57;;;;;;;3.87;1.83;;;;;;;;;;5000806;28;20511;-45
2022/10/27 12:30:23;;;;;;;3.20;1.83;;;;;;;;;;4998892;28;20415;-45
2022/10/27 12:33:00;;;;;;;2.70;1.63;;;;;;;;;;5005365;28;20431;-45
2022/10/27 12:35:32;;;;;;;4.83;1.80;;;;;;;;;;5003392;28;20775;-44
2022/10/27 12:38:12;;;;;;;3.67;2.00;;;;;;;;;;5004209;28;20418;-44
2022/10/27 12:40:44;;;;;;;8.40;2.60;;;;;;;;;;5004741;28;20508;-45
2022/10/27 12:43:33;;;;;;;14.30;2.20;;;;;;;;;;5002292;28;20420;-45
2022/10/27 12:46:03;;;;;;;1.97;1.70;;;;;;;;;;4996558;28;20408;-44
2022/10/27 12:48:44;;;;;;;4.23;1.93;;;;;;;;;;5003418;28;20456;-44
2022/10/27 12:51:22;;;;;;;3.63;1.77;;;;;;;;;;5003336;28;20521;-45
2022/10/27 12:53:50;;;;;;;4.57;2.30;;;;;;;;;;4998235;28;20542;-45
2022/10/27 12:56:45;;;;;;;6.33;2.70;;;;;;;;;;5004563;28;20422;-44
2022/10/27 12:59:23;;;;;;;3.80;2.10;;;;;;;;;;5012874;28;20501;-44
2022/10/27 13:01:55;;;;;;;3.40;2.10;;;;;;;;;;4993777;28;20435;-45
2022/10/27 13:04:21;;;;;;;5.70;1.80;;;;;;;;;;5006984;28;20422;-45
2022/10/27 13:06:53;;;;;;;2.90;1.70;;;;;;;;;;5002170;28;20411;-44
2022/10/27 13:09:33;;;;;;;2.20;1.87;;;;;;;;;;4999563;28;20601;-44
2022/10/27 13:12:14;;;;;;;1.70;1.60;;;;;;;;;;5000312;28;20929;-45
2022/10/27 13:14:58;;;;;;;3.63;1.80;;;;;;;;;;5004464;28;20844;-45
2022/10/27 13:17:39;;;;;;;3.50;1.67;;;;;;;;;;5002747;28;20466;-44
2022/10/27 13:20:13;;;;;;;9.60;1.73;;;;;;;;;;5002779;28;20461;-44
2022/10/27 13:22:42;;;;;;;2.87;1.70;;;;;;;;;;4998370;28;20443;-45
2022/10/27 13:25:08;;;;;;;4.40;1.53;;;;;;;;;;4993126;28;20416;-44
2022/10/27 13:27:57;;;;;;;5.70;1.70;;;;;;;;;;4992849;28;20412;-44
2022/10/27 13:30:24;;;;;;;4.80;2.10;;;;;;;;;;4992208;28;20195;-45
2022/10/27 13:32:54;;;;;;;3.57;1.80;;;;;;;;;;4992778;28;20440;-44
2022/10/27 13:35:27;;;;;;;2.03;1.90;;;;;;;;;;4989194;28;20508;-44
2022/10/27 13:37:58;;;;;;;8.53;2.83;;;;;;;;;;4993003;28;20412;-44
2022/10/27 13:40:24;;;;;;;4.10;2.40;;;;;;;;;;5002441;28;20459;-45
2022/10/27 13:42:57;;;;;;;7.00;2.23;;;;;;;;;;5003977;28;21099;-44
2022/10/27 13:45:26;;;;;;;4.63;2.20;;;;;;;;;;5002517;28;20199;-45
2022/10/27 13:48:07;;;;;;;2.77;2.03;;;;;;;;;;5004381;28;20489;-44
2022/10/27 13:50:33;;;;;;;2.80;2.00;;;;;;;;;;5003175;28;20415;-45
2022/10/27 13:53:14;;;;;;;3.30;1.80;;;;;;;;;;5000822;28;20436;-45
2022/10/27 13:55:44;;;;;;;4.27;2.27;;;;;;;;;;5002063;28;20489;-44
2022/10/27 13:58:20;;;;;;;4.90;2.53;;;;;;;;;;5000861;28;20423;-44
2022/10/27 14:00:49;;;;;;;2.90;2.43;;;;;;;;;;4994842;28;20678;-44
2022/10/27 14:03:23;;;;;;;2.60;1.90;;;;;;;;;;5004988;28;20782;-45
2022/10/27 14:05:49;;;;;;;4.63;2.50;;;;;;;;;;4992835;28;20410;-44
2022/10/27 14:08:32;;;;;;;4.00;2.30;;;;;;;;;;4997544;28;20412;-44
2022/10/27 14:10:59;;;;;;;8.73;3.80;;;;;;;;;;4994326;28;20427;-45
2022/10/27 14:13:31;;;;;;;8.93;3.90;;;;;;;;;;4991756;28;20925;-44
2022/10/27 14:15:59;;;;;;;8.13;5.40;;;;;;;;;;4992433;28;20426;-45
2022/10/27 14:18:30;;;;;;;5.90;2.57;;;;;;;;;;4994687;28;20423;-44
2022/10/27 14:20:57;;;;;;;9.40;2.40;;;;;;;;;;4991664;28;20466;-46
2022/10/27 14:23:25;;;;;;;9.83;2.77;;;;;;;;;;4992157;28;20419;-44
2022/10/27 14:25:51;;;;;;;8.00;4.90;;;;;;;;;;4991538;28;20504;-45
2022/10/27 14:28:22;;;;;;;7.60;3.00;;;;;;;;;;4992993;28;20451;-44
2022/10/27 14:31:08;;;;;;;4.43;2.37;;;;;;;;;;4996432;28;20424;-44
2022/10/27 14:33:34;;;;;;;9.80;4.30;;;;;;;;;;4992022;28;20412;-43
2022/10/27 14:36:23;;;;;;;2.77;2.47;;;;;;;;;;4992118;28;20543;-43
2022/10/27 14:38:50;;;;;;;8.03;2.87;;;;;;;;;;4995302;28;20465;-46
2022/10/27 14:41:17;;;;;;;11.30;3.20;;;;;;;;;;5000071;28;20530;-43
2022/10/27 14:43:45;;;;;;;4.00;2.10;;;;;;;;;;4991611;28;20404;-47
2022/10/27 14:46:16;;;;;;;4.43;2.50;;;;;;;;;;5001679;28;20924;-43
2022/10/27 14:48:42;;;;;;;9.57;2.80;;;;;;;;;;5000055;28;20415;-43
2022/10/27 14:51:12;;;;;;;4.10;2.90;;;;;;;;;;5000210;28;20434;-45
2022/10/27 14:53:38;;;;;;;5.40;2.50;;;;;;;;;;5000259;28;20937;-46
2022/10/27 14:56:19;;;;;;;12.20;4.20;;;;;;;;;;5004963;28;20828;-43
2022/10/27 14:58:55;;;;;;;4.23;3.10;;;;;;;;;;4992243;28;20506;-46